Terminal Aerodrome Forecast
Issued by NWS Sioux Falls, SD

Home | Current Version | Previous Version | Text Only | Print | Product List | Glossary On
Versions: 1 2 3 4 5 6 7 8 9 10 11 12 13 14 15 16
000
FTUS43 KFSD 280523
TAFFSD
TAF
KFSD 280523Z 2806/2906 12008KT P6SM OVC035
     FM280800 12009KT P6SM OVC030
     FM281600 16014KT P6SM SCT030
     FM281900 17018G26KT P6SM SCT200
     FM290300 17022G29KT P6SM SCT100=

USA.gov is the U.S. government's official web portal to all federal, state and local government web resources and services.